Weather History for Howell, MI

Change the Weather History Date:

Saturday, September 28, 2013

  Actual Average Record
Temperature  
Mean Temperature 62 °F -  
Max Temperature 77 °F 66 °F 86 °F (1999)
Min Temperature 47 °F 45 °F 39 °F (2000)
Degree Days  
Heating Degree Days 3    
Growing Degree Days 12 (Base 50)    
Moisture  
Dew Point 54 °F    
Average Humidity 76    
Maximum Humidity 100    
Minimum Humidity 37    
Precipitation  
Precipitation 0.00 in - - ()
Sea Level Pressure  
Sea Level Pressure 30.13 in    
Wind  
Wind Speed 5 mph (SE)    
Max Wind Speed 13 mph    
Max Gust Speed 20 mph    
Visibility 7 miles    
Events Fog    
Averages and records for this station are not official NWS values.
T = Trace of Precipitation, MM = Missing Value Source: NWS Daily Summary

Daily Weather History Graph

Daily Weather History Graph

Search for Another Location

Airport:

Trip Planner

Search our weather history database for the weather conditions in past years. The results will help you decide how hot, cold, wet, or windy it might be!

Date:

Astronomy

Sep. 28, 2013 Rise Set
Actual Time 7:30 AM EDT 7:22 PM EDT
Civil Twilight 7:01 AM EDT 7:50 PM EDT
Nautical Twilight 6:29 AM EDT 8:22 PM EDT
Astronomical Twilight 5:55 AM EDT 8:56 PM EDT
Moon 1:09 AM EDT (9/28) 3:46 PM EDT (9/28)
Length of Visible Light 12h 48m
Length of Day
11h 52m
Last Quarter, 36% of the Moon is Illuminated
Sep 28
Last Quarter
Oct 4
New
Oct 11
First Quarter
Oct 18
Full
Oct 26
Last Quarter

Hourly Weather History & Observations

Time (EDT) Temp. Dew Point Humidity Pressure Visibility Wind Dir Wind Speed Gust Speed Precip Events Conditions
12:14 AM 53.8 °F 52.9 °F 97% 30.19 in 10.0 mi Calm Calm - N/A   Clear
12:34 AM 54.5 °F 54.1 °F 99% 30.19 in 10.0 mi Calm Calm - N/A   Clear
12:55 AM 52.9 °F 52.7 °F 99% 30.19 in 10.0 mi Calm Calm - N/A   Clear
1:14 AM 50.9 °F 50.5 °F 99% 30.19 in 10.0 mi Calm Calm - N/A   Clear
1:34 AM 52.5 °F 52.2 °F 99% 30.19 in 1.0 mi Calm Calm - N/A   Mist
1:55 AM 51.6 °F 51.4 °F 99% 30.19 in 5.0 mi Calm Calm - N/A   Clear
2:14 AM 49.1 °F 48.7 °F 99% 30.19 in 5.0 mi Calm Calm - N/A   Clear
2:34 AM 48.2 °F 48.2 °F 100% 30.19 in 0.5 mi ENE 3.5 mph - N/A Fog Fog
2:55 AM 49.3 °F 49.3 °F 100% 30.19 in 0.2 mi ENE 3.5 mph - N/A Fog Fog
3:14 AM 49.8 °F 49.8 °F 100% 30.18 in 0.5 mi ENE 3.5 mph - N/A Fog Fog
3:34 AM 48.6 °F 48.6 °F 100% 30.18 in 0.2 mi ENE 3.5 mph - N/A Fog Fog
3:55 AM 47.7 °F 47.7 °F 100% 30.18 in 0.2 mi East 3.5 mph - N/A Fog Fog
4:14 AM 49.1 °F 49.1 °F 100% 30.18 in 0.2 mi ENE 3.5 mph - N/A Fog Fog
4:35 AM 48.7 °F 48.7 °F 100% 30.18 in 0.2 mi Calm Calm - N/A Fog Fog
4:55 AM 48.7 °F 48.7 °F 100% 30.18 in 0.2 mi Calm Calm - N/A Fog Fog
5:14 AM 49.1 °F 49.1 °F 100% 30.18 in 0.2 mi East 3.5 mph - N/A Fog Fog
5:35 AM 50.0 °F 50.0 °F 100% 30.19 in 2.5 mi East 4.6 mph - N/A   Mostly Cloudy
5:55 AM 52.7 °F 52.7 °F 100% 30.18 in 2.5 mi East 3.5 mph - N/A   Overcast
6:14 AM 53.8 °F 53.8 °F 100% 30.18 in 3.0 mi ESE 4.6 mph - N/A   Overcast
6:35 AM 55.2 °F 55.2 °F 100% 30.18 in 3.0 mi ESE 5.8 mph - N/A   Overcast
6:55 AM 57.2 °F 57.2 °F 100% 30.19 in 2.0 mi ESE 5.8 mph - N/A   Overcast
7:14 AM 58.1 °F 58.1 °F 100% 30.20 in 1.0 mi SE 8.1 mph - N/A   Overcast
7:35 AM 58.6 °F 58.6 °F 100% 30.19 in 0.8 mi ESE 6.9 mph - N/A   Overcast
7:55 AM 59.0 °F 59.0 °F 100% 30.20 in 0.2 mi SE 9.2 mph - N/A Fog Fog
8:14 AM 59.2 °F 59.2 °F 100% 30.20 in 0.2 mi SE 8.1 mph - N/A Fog Fog
8:35 AM 59.2 °F 59.2 °F 100% 30.20 in 0.5 mi SSE 6.9 mph - N/A Fog Fog
8:55 AM 59.2 °F 59.2 °F 100% 30.20 in 0.5 mi SE 9.2 mph - N/A Fog Fog
9:14 AM 59.4 °F 59.4 °F 100% 30.20 in 1.0 mi SE 9.2 mph - N/A   Overcast
9:35 AM 59.9 °F 59.9 °F 100% 30.20 in 4.0 mi SE 9.2 mph - N/A   Mostly Cloudy
9:54 AM 61.0 °F 61.0 °F 100% 30.21 in 7.0 mi SE 8.1 mph - N/A   Scattered Clouds
10:14 AM 62.6 °F 62.1 °F 98% 30.20 in 10.0 mi SE 8.1 mph - N/A   Clear
10:35 AM 64.6 °F 61.9 °F 91% 30.20 in 10.0 mi ESE 9.2 mph - N/A   Clear
10:54 AM 67.3 °F 60.8 °F 80% 30.20 in 10.0 mi SE 5.8 mph - N/A   Clear
11:14 AM 69.1 °F 59.2 °F 71% 30.20 in 10.0 mi SSE 8.1 mph - N/A   Clear
11:35 AM 70.7 °F 58.1 °F 64% 30.19 in 10.0 mi SE 8.1 mph - N/A   Clear
11:54 AM 72.5 °F 55.9 °F 56% 30.18 in 10.0 mi SE 10.4 mph - N/A   Clear
12:14 PM 72.9 °F 54.7 °F 53% 30.18 in 10.0 mi South 10.4 mph - N/A   Clear
12:35 PM 73.4 °F 54.5 °F 51% 30.17 in 10.0 mi SE 11.5 mph - N/A   Clear
12:54 PM 74.5 °F 53.6 °F 48% 30.16 in 10.0 mi SSE 10.4 mph - N/A   Clear
1:15 PM 75.2 °F 53.8 °F 47% 30.15 in 10.0 mi SE 11.5 mph - N/A   Clear
1:34 PM 75.9 °F 53.2 °F 45% 30.14 in 10.0 mi SE 12.7 mph - N/A   Clear
1:54 PM 75.7 °F 52.9 °F 45% 30.13 in 10.0 mi SSE 10.4 mph - N/A   Clear
2:15 PM 76.5 °F 52.2 °F 43% 30.12 in 10.0 mi SSE 10.4 mph - N/A   Clear
2:34 PM 76.5 °F 52.2 °F 43% 30.11 in 10.0 mi SE 12.7 mph 18.4 mph N/A   Clear
2:54 PM 77.4 °F 51.8 °F 41% 30.10 in 10.0 mi South 10.4 mph - N/A   Clear
3:15 PM 77.5 °F 51.8 °F 41% 30.10 in 10.0 mi SSE 12.7 mph 17.3 mph N/A   Clear
3:34 PM 77.0 °F 50.7 °F 40% 30.09 in 10.0 mi SSE 9.2 mph - N/A   Clear
3:54 PM 77.5 °F 50.5 °F 39% 30.08 in 10.0 mi SE 11.5 mph - N/A   Clear
4:15 PM 77.7 °F 49.8 °F 37% 30.07 in 10.0 mi SSE 10.4 mph 19.6 mph N/A   Clear
4:34 PM 77.4 °F 50.2 °F 38% 30.06 in 10.0 mi SSE 9.2 mph 18.4 mph N/A   Clear
4:54 PM 77.4 °F 50.2 °F 38% 30.06 in 10.0 mi SSE 10.4 mph 17.3 mph N/A   Clear
5:14 PM 76.8 °F 51.1 °F 40% 30.06 in 10.0 mi South 11.5 mph - N/A   Clear
5:34 PM 76.3 °F 50.5 °F 40% 30.05 in 10.0 mi SSE 11.5 mph - N/A   Clear
5:55 PM 75.6 °F 50.5 °F 41% 30.05 in 10.0 mi SE 9.2 mph - N/A   Clear
6:14 PM 73.6 °F 51.3 °F 45% 30.05 in 10.0 mi SE 9.2 mph - N/A   Clear
6:34 PM 71.6 °F 53.2 °F 52% 30.05 in 10.0 mi SE 9.2 mph - N/A   Clear
6:55 PM 71.2 °F 54.5 °F 55% 30.05 in 10.0 mi SE 8.1 mph - N/A   Clear
7:14 PM 69.8 °F 54.5 °F 58% 30.05 in 10.0 mi SE 9.2 mph - N/A   Clear
7:34 PM 67.8 °F 54.5 °F 62% 30.05 in 10.0 mi SE 8.1 mph - N/A   Clear
7:55 PM 66.9 °F 54.5 °F 64% 30.05 in 10.0 mi SE 9.2 mph - N/A   Clear
8:14 PM 66.4 °F 54.0 °F 64% 30.05 in 7.0 mi SE 9.2 mph - N/A   Clear
8:34 PM 64.4 °F 54.0 °F 69% 30.05 in 10.0 mi SE 9.2 mph - N/A   Clear
8:55 PM 64.8 °F 54.0 °F 68% 30.05 in 10.0 mi SE 10.4 mph - N/A   Clear
9:14 PM 64.4 °F 53.8 °F 68% 30.04 in 10.0 mi SE 11.5 mph - N/A   Clear
9:35 PM 63.9 °F 53.8 °F 70% 30.04 in 10.0 mi SE 11.5 mph - N/A   Clear
9:54 PM 63.1 °F 53.8 °F 71% 30.04 in 10.0 mi SE 12.7 mph - N/A   Clear
10:14 PM 62.8 °F 54.3 °F 74% 30.03 in 10.0 mi SE 11.5 mph - N/A   Clear
10:35 PM 62.6 °F 54.7 °F 75% 30.02 in 10.0 mi SE 9.2 mph - N/A   Clear
10:54 PM 61.5 °F 55.6 °F 81% 30.02 in 10.0 mi SE 9.2 mph - N/A   Clear
11:14 PM 61.0 °F 55.8 °F 83% 30.02 in 10.0 mi SE 8.1 mph - N/A   Clear
11:35 PM 60.1 °F 55.8 °F 86% 30.02 in 10.0 mi SSE 4.6 mph - N/A   Clear
11:54 PM 60.8 °F 56.7 °F 86% 30.02 in 10.0 mi SSE 4.6 mph - N/A   Clear